Česky Dansk Deutsch English Español Suomi Français Magyar Italiano Nederlands norsk Polski Português svenska Türkçe

 

Het Weer

Kassala (Sudan)

10:00, 30 mei 2015 (GMT)

NWNNE
WE
SWSSE
Home            
Kassala Tessenei / Teseney Agordat Gedaref Asmara Axum Massawa Gondar Atbara Sennar Makale Khartoum Bahar Dar Port Sudan International Damazine Port Sudan Kosti Renk Debremarcos Combolcha Assosa / Asosa Gizan Hodeidah

Om een weerknop op uw website of weblog te plaatsen, copieer onderstaande code en plak die in uw pagina. In het eerste vakje staat HTML-code, in het tweede vakje UBB-code.


Add to Google

Details

Wind speed:2 bf, 6 kn, 3.1 m/s, 6.9 miles/h, 11.1 km/h
Wind direction:S, 180°
Visibility:Greater than 10000 m, 10 km, 32800 ft, 6.2 miles
Clouds:CAVOC
METAR:HSKA 301000Z 3012/3021 18006KT CAVOK TEMPO 3015/3021 9999 SCT040 SCT140

Snelkoppelingen

Actuele weersinformatie van de hele wereld. Voeg locaties toe met het plus (+) symbool. Deze snelkoppelingen kunnen worden toegevoegd aan Google.

Lid van de Technetium groep

website free tracking
StatCounter NetStat W3C Validator

14-04-2021 09:19:05
astro.technetium.be money.technetium.be phote.technetium.be tafeltennistafel.technetium.be www.ligfiets.net